Map

Track Data

SID SEASON NUMBER BASIN SUBBASIN NAME ISO_TIME NATURE LAT LON WMO_WIND WMO_PRES WMO_AGENCY TRACK_TYPE DIST2LAND LANDFALL IFLAG USA_AGENCY USA_ATCF_ID USA_LAT USA_LON USA_RECORD USA_STATUS USA_WIND USA_PRES USA_SSHS USA_R34_NE USA_R34_SE USA_R34_SW USA_R34_NW USA_R50_NE USA_R50_SE USA_R50_SW USA_R50_NW USA_R64_NE USA_R64_SE USA_R64_SW USA_R64_NW USA_POCI USA_ROCI USA_RMW USA_EYE TOKYO_LAT TOKYO_LON TOKYO_GRADE TOKYO_WIND TOKYO_PRES TOKYO_R50_DIR TOKYO_R50_LONG TOKYO_R50_SHORT TOKYO_R30_DIR TOKYO_R30_LONG TOKYO_R30_SHORT TOKYO_LAND CMA_LAT CMA_LON CMA_CAT CMA_WIND CMA_PRES HKO_LAT HKO_LON HKO_CAT HKO_WIND HKO_PRES NEWDELHI_LAT NEWDELHI_LON NEWDELHI_GRADE NEWDELHI_WIND NEWDELHI_PRES NEWDELHI_CI NEWDELHI_DP NEWDELHI_POCI REUNION_LAT REUNION_LON REUNION_TYPE REUNION_WIND REUNION_PRES REUNION_TNUM REUNION_CI REUNION_RMW REUNION_R34_NE REUNION_R34_SE REUNION_R34_SW REUNION_R34_NW REUNION_R50_NE REUNION_R50_SE REUNION_R50_SW REUNION_R50_NW REUNION_R64_NE REUNION_R64_SE REUNION_R64_SW REUNION_R64_NW BOM_LAT BOM_LON BOM_TYPE BOM_WIND BOM_PRES BOM_TNUM BOM_CI BOM_RMW BOM_R34_NE BOM_R34_SE BOM_R34_SW BOM_R34_NW BOM_R50_NE BOM_R50_SE BOM_R50_SW BOM_R50_NW BOM_R64_NE BOM_R64_SE BOM_R64_SW BOM_R64_NW BOM_ROCI BOM_POCI BOM_EYE BOM_POS_METHOD BOM_PRES_METHOD NADI_LAT NADI_LON NADI_CAT NADI_WIND NADI_PRES WELLINGTON_LAT WELLINGTON_LON WELLINGTON_WIND WELLINGTON_PRES DS824_LAT DS824_LON DS824_STAGE DS824_WIND DS824_PRES TD9636_LAT TD9636_LON TD9636_STAGE TD9636_WIND TD9636_PRES TD9635_LAT TD9635_LON TD9635_WIND TD9635_PRES TD9635_ROCI NEUMANN_LAT NEUMANN_LON NEUMANN_CLASS NEUMANN_WIND NEUMANN_PRES MLC_LAT MLC_LON MLC_CLASS MLC_WIND MLC_PRES USA_GUST BOM_GUST BOM_GUST_PER REUNION_GUST REUNION_GUST_PER USA_SEAHGT USA_SEARAD_NE USA_SEARAD_SE USA_SEARAD_SW USA_SEARAD_NW STORM_SPEED STORM_DIR
1959186N32281 1959 45 NA NA CINDY 1959-07-04 12:00:00 TS 31.5000 -79.0000 25 hurdat_atl main 154 154 O_____________ hurdat_atl AL041959 31.5000 -79.0000 TD 25 -1 5 182
1959186N32281 1959 45 NA NA CINDY 1959-07-04 15:00:00 TS 31.2500 -79.0075 main 172 172 P_____________ AL041959 31.2500 -79.0075 TD 25 -1 5 178
1959186N32281 1959 45 NA NA CINDY 1959-07-04 18:00:00 TS 31.0000 -79.0000 25 hurdat_atl main 201 201 O_____________ hurdat_atl AL041959 31.0000 -79.0000 TD 25 -1 5 175
1959186N32281 1959 45 NA NA CINDY 1959-07-04 21:00:00 TS 30.7500 -78.9650 main 224 224 P_____________ AL041959 30.7500 -78.9650 TD 25 -1 5 170
1959186N32281 1959 45 NA NA CINDY 1959-07-05 00:00:00 TS 30.5000 -78.9000 25 hurdat_atl main 239 234 O_____________ hurdat_atl AL041959 30.5000 -78.9000 TD 25 -1 5 166
1959186N32281 1959 45 NA NA CINDY 1959-07-05 03:00:00 TS 30.2275 -78.8074 main 236 231 P_____________ AL041959 30.2275 -78.8074 TD 25 -1 5 161
1959186N32281 1959 45 NA NA CINDY 1959-07-05 06:00:00 TS 30.0000 -78.7000 25 hurdat_atl main 235 230 O_____________ hurdat_atl AL041959 30.0000 -78.7000 TD 25 -1 4 154
1959186N32281 1959 45 NA NA CINDY 1959-07-05 09:00:00 TS 29.8625 -78.6000 main 239 234 P_____________ AL041959 29.8625 -78.6000 TD 25 -1 3 139
1959186N32281 1959 45 NA NA CINDY 1959-07-05 12:00:00 TS 29.8000 -78.5000 25 hurdat_atl main 242 242 O_____________ hurdat_atl AL041959 29.8000 -78.5000 TD 25 -1 2 117
1959186N32281 1959 45 NA NA CINDY 1959-07-05 15:00:00 TS 29.7700 -78.3925 main 250 250 P_____________ AL041959 29.7700 -78.3925 TD 25 -1 2 90
1959186N32281 1959 45 NA NA CINDY 1959-07-05 18:00:00 TS 29.8000 -78.3000 25 hurdat_atl main 258 258 O_____________ hurdat_atl AL041959 29.8000 -78.3000 TD 25 -1 2 49
1959186N32281 1959 45 NA NA CINDY 1959-07-05 21:00:00 TS 29.8775 -78.2500 main 272 272 P_____________ AL041959 29.8775 -78.2500 TD 25 -1 2 25
1959186N32281 1959 45 NA NA CINDY 1959-07-06 00:00:00 TS 30.0000 -78.2000 25 hurdat_atl main 278 278 O_____________ hurdat_atl AL041959 30.0000 -78.2000 TD 25 -1 3 25
1959186N32281 1959 45 NA NA CINDY 1959-07-06 03:00:00 TS 30.1500 -78.1001 main 296 296 P_____________ AL041959 30.1500 -78.1001 TD 25 -1 3 30
1959186N32281 1959 45 NA NA CINDY 1959-07-06 06:00:00 TS 30.3000 -78.0000 25 hurdat_atl main 310 309 O_____________ hurdat_atl AL041959 30.3000 -78.0000 TD 25 -1 3 28
1959186N32281 1959 45 NA NA CINDY 1959-07-06 09:00:00 TS 30.4000 -77.9499 main 315 307 P_____________ AL041959 30.4000 -77.9499 TD 27 -1 2 25
1959186N32281 1959 45 NA NA CINDY 1959-07-06 12:00:00 TS 30.5000 -77.9000 30 hurdat_atl main 307 298 O_____________ hurdat_atl AL041959 30.5000 -77.9000 TD 30 -1 3 27
1959186N32281 1959 45 NA NA CINDY 1959-07-06 15:00:00 TS 30.6275 -77.8149 main 305 293 P_____________ AL041959 30.6275 -77.8149 TD 32 -1 3 30
1959186N32281 1959 45 NA NA CINDY 1959-07-06 18:00:00 TS 30.8000 -77.7000 35 hurdat_atl main 293 280 O_____________ hurdat_atl AL041959 30.8000 -77.7000 TS 35 0 5 29
1959186N32281 1959 45 NA NA CINDY 1959-07-06 21:00:00 TS 31.0350 -77.5501 main 280 266 P_____________ AL041959 31.0350 -77.5501 TS 37 0 6 27
1959186N32281 1959 45 NA NA CINDY 1959-07-07 00:00:00 TS 31.3000 -77.4000 40 hurdat_atl main 266 251 O_____________ hurdat_atl AL041959 31.3000 -77.4000 TS 40 0 6 22
1959186N32281 1959 45 NA NA CINDY 1959-07-07 03:00:00 TS 31.5725 -77.2925 main 251 243 P_____________ AL041959 31.5725 -77.2925 TS 40 0 5 19
1959186N32281 1959 45 NA NA CINDY 1959-07-07 06:00:00 TS 31.8000 -77.2000 40 hurdat_atl main 243 235 O_____________ hurdat_atl AL041959 31.8000 -77.2000 TS 40 0 4 25
1959186N32281 1959 45 NA NA CINDY 1959-07-07 09:00:00 TS 31.9300 -77.0924 main 238 227 P_____________ AL041959 31.9300 -77.0924 TS 42 0 3 40
1959186N32281 1959 45 NA NA CINDY 1959-07-07 12:00:00 TS 32.0000 -77.0000 45 hurdat_atl main 231 225 O_____________ hurdat_atl AL041959 32.0000 -77.0000 TS 45 0 2 48
1959186N32281 1959 45 NA NA CINDY 1959-07-07 15:00:00 TS 32.0575 -76.9275 main 225 225 P_____________ AL041959 32.0575 -76.9275 TS 47 0 1 40
1959186N32281 1959 45 NA NA CINDY 1959-07-07 18:00:00 TS 32.1000 -76.9000 50 hurdat_atl main 225 225 O_____________ hurdat_atl AL041959 32.1000 -76.9000 TS 50 0 1 0
1959186N32281 1959 45 NA NA CINDY 1959-07-07 21:00:00 TS 32.1499 -76.9050 main 225 211 P_____________ AL041959 32.1499 -76.9050 TS 52 0 1 320
1959186N32281 1959 45 NA NA CINDY 1959-07-08 00:00:00 TS 32.2000 -77.0000 55 997 hurdat_atl main 211 203 O_____________ hurdat_atl AL041959 32.2000 -77.0000 TS 55 997 0 3 291
1959186N32281 1959 45 NA NA CINDY 1959-07-08 03:00:00 TS 32.2500 -77.2125 main 193 184 P_____________ AL041959 32.2500 -77.2125 TS 57 996 0 4 283
1959186N32281 1959 45 NA NA CINDY 1959-07-08 06:00:00 TS 32.3000 -77.5000 60 hurdat_atl main 184 158 I_____________ hurdat_atl AL041959 32.3000 -77.5000 TS 60 996 0 5 282
1959186N32281 1959 45 NA NA CINDY 1959-07-08 09:00:00 TS 32.3575 -77.7924 main 158 135 P_____________ AL041959 32.3575 -77.7924 TS 62 995 0 5 281
1959186N32281 1959 45 NA NA CINDY 1959-07-08 12:00:00 TS 32.4000 -78.1000 65 995 hurdat_atl main 135 114 O_____________ hurdat_atl AL041959 32.4000 -78.1000 HU 65 995 1 5 274
1959186N32281 1959 45 NA NA CINDY 1959-07-08 15:00:00 TS 32.3924 -78.4002 main 114 93 P_____________ AL041959 32.3924 -78.4002 HU 65 995 1 5 270
1959186N32281 1959 45 NA NA CINDY 1959-07-08 18:00:00 TS 32.4000 -78.7000 65 hurdat_atl main 93 76 I_____________ hurdat_atl AL041959 32.4000 -78.7000 HU 65 995 1 5 276
1959186N32281 1959 45 NA NA CINDY 1959-07-08 21:00:00 TS 32.4493 -79.0138 main 76 45 P_____________ AL041959 32.4493 -79.0138 HU 65 995 1 5 292
1959186N32281 1959 45 NA NA CINDY 1959-07-09 00:00:00 TS 32.6000 -79.3000 65 995 hurdat_atl main 45 11 O_____________ hurdat_atl AL041959 32.6000 -79.3000 HU 65 995 1 6 316
1959186N32281 1959 45 NA NA CINDY 1959-07-09 03:00:00 TS 32.8928 -79.5177 main 11 0 P_____________ AL041959 32.8928 -79.5177 HU 65 995 1 7 328
1959186N32281 1959 45 NA NA CINDY 1959-07-09 04:00:00 TS 33.0000 -79.6000 65 995 hurdat_atl main 0 0 O_____________ hurdat_atl AL041959 33.0000 -79.6000 L HU 65 995 1 8 322
1959186N32281 1959 45 NA NA CINDY 1959-07-09 06:00:00 TS 33.2000 -79.8000 50 hurdat_atl main 0 0 O_____________ hurdat_atl AL041959 33.2000 -79.8000 TS 50 0 7 325
1959186N32281 1959 45 NA NA CINDY 1959-07-09 09:00:00 TS 33.4680 -79.9916 main 0 0 P_____________ AL041959 33.4680 -79.9916 TS 42 0 6 333
1959186N32281 1959 45 NA NA CINDY 1959-07-09 12:00:00 TS 33.7000 -80.1000 35 hurdat_atl main 0 0 O_____________ hurdat_atl AL041959 33.7000 -80.1000 TS 35 0 5 334
1959186N32281 1959 45 NA NA CINDY 1959-07-09 15:00:00 TS 33.9075 -80.2523 main 0 0 P_____________ AL041959 33.9075 -80.2523 TS 32 -1 4 337
1959186N32281 1959 45 NA NA CINDY 1959-07-09 18:00:00 TS 34.1000 -80.3000 30 hurdat_atl main 0 0 O_____________ hurdat_atl AL041959 34.1000 -80.3000 TD 30 -1 4 10
1959186N32281 1959 45 NA NA CINDY 1959-07-09 21:00:00 TS 34.2849 -80.1674 main 0 0 P_____________ AL041959 34.2849 -80.1674 TD 30 -1 5 40
1959186N32281 1959 45 NA NA CINDY 1959-07-10 00:00:00 TS 34.5000 -79.9000 30 hurdat_atl main 0 0 O_____________ hurdat_atl AL041959 34.5000 -79.9000 TD 30 -1 7 43
1959186N32281 1959 45 NA NA CINDY 1959-07-10 03:00:00 TS 34.7696 -79.6168 main 0 0 P_____________ AL041959 34.7696 -79.6168 TD 30 -1 8 44
1959186N32281 1959 45 NA NA CINDY 1959-07-10 06:00:00 TS 35.1000 -79.2000 30 hurdat_atl main 0 0 O_____________ hurdat_atl AL041959 35.1000 -79.2000 TD 30 -1 11 50
1959186N32281 1959 45 NA NA CINDY 1959-07-10 09:00:00 TS 35.4700 -78.6096 main 0 0 P_____________ AL041959 35.4700 -78.6096 TD 32 -1 13 53
1959186N32281 1959 45 NA NA CINDY 1959-07-10 12:00:00 TS 35.9000 -77.9000 35 hurdat_atl main 0 0 O_____________ hurdat_atl AL041959 35.9000 -77.9000 TS 35 0 15 52
1959186N32281 1959 45 NA NA CINDY 1959-07-10 15:00:00 TS 36.3769 -77.1865 main 0 0 P_____________ AL041959 36.3769 -77.1865 TS 37 0 16 50
1959186N32281 1959 45 NA NA CINDY 1959-07-10 18:00:00 TS 36.9000 -76.4000 40 hurdat_atl main 8 0 O_____________ hurdat_atl AL041959 36.9000 -76.4000 TS 40 0 17 52
1959186N32281 1959 45 NA NA CINDY 1959-07-10 21:00:00 TS 37.4122 -75.5280 main 20 20 P_____________ AL041959 37.4122 -75.5280 TS 42 0 18 52
1959186N32281 1959 45 NA NA CINDY 1959-07-11 00:00:00 TS 38.0000 -74.6000 45 hurdat_atl main 54 54 O_____________ hurdat_atl AL041959 38.0000 -74.6000 TS 45 0 19 50
1959186N32281 1959 45 NA NA CINDY 1959-07-11 03:00:00 TS 38.6668 -73.6618 main 97 97 P_____________ AL041959 38.6668 -73.6618 TS 47 0 21 45
1959186N32281 1959 45 NA NA CINDY 1959-07-11 06:00:00 TS 39.5000 -72.7000 50 hurdat_atl main 129 73 O_____________ hurdat_atl AL041959 39.5000 -72.7000 TS 50 0 24 38
1959186N32281 1959 45 NA NA CINDY 1959-07-11 09:00:00 TS 40.5149 -71.7758 main 75 8 P_____________ AL041959 40.5149 -71.7757 TS 50 0 27 35
1959186N32281 1959 45 NA NA CINDY 1959-07-11 12:00:00 TS 41.7000 -70.7000 50 998 hurdat_atl main 0 0 O_____________ hurdat_atl AL041959 41.7000 -70.7000 L TS 50 998 0 31 37
1959186N32281 1959 45 NA NA CINDY 1959-07-11 15:00:00 TS 43.0163 -69.2641 main 87 19 P_____________ AL041959 43.0163 -69.2641 TS 47 999 0 34 40
1959186N32281 1959 45 NA NA CINDY 1959-07-11 18:00:00 ET 44.3000 -67.7000 45 1000 hurdat_atl main 19 0 O_____________ hurdat_atl AL041959 44.3000 -67.7000 EX 45 1000 -4 32 43
1959186N32281 1959 45 NA NA CINDY 1959-07-11 21:00:00 ET 45.3423 -66.2832 main 0 0 P_____________ AL041959 45.3423 -66.2832 EX 42 -4 28 45
1959186N32281 1959 45 NA NA CINDY 1959-07-12 00:00:00 ET 46.3000 -64.9000 40 hurdat_atl main 0 0 O_____________ hurdat_atl AL041959 46.3000 -64.9000 EX 40 -4 28 45
1959186N32281 1959 45 NA NA CINDY 1959-07-12 03:00:00 ET 47.2835 -63.4512 main 50 50 P_____________ AL041959 47.2835 -63.4512 EX 37 -4 28 45
1959186N32281 1959 45 NA NA CINDY 1959-07-12 06:00:00 ET 48.3000 -62.0000 35 hurdat_atl main 88 39 O_____________ hurdat_atl AL041959 48.3000 -62.0000 EX 35 -4 28 43
1959186N32281 1959 45 NA NA CINDY 1959-07-12 09:00:00 ET 49.3608 -60.5428 main 89 13 P_____________ AL041959 49.3608 -60.5428 EX 32 -4 29 41
1959186N32281 1959 45 NA NA CINDY 1959-07-12 12:00:00 ET 50.5000 -59.1000 30 hurdat_atl main 21 0 O_____________ hurdat_atl AL041959 50.5000 -59.1000 EX 30 -4 30 38
1959186N32281 1959 45 NA NA CINDY 1959-07-12 15:00:00 ET 51.7284 -57.6674 main 0 0 P_____________ AL041959 51.7284 -57.6674 EX 27 -4 31 36
1959186N32281 1959 45 NA NA CINDY 1959-07-12 18:00:00 ET 53.0000 -56.2000 25 hurdat_atl main 0 O_____________ hurdat_atl AL041959 53.0000 -56.2000 EX 25 -4 31 35

About IBTrACS Database

This database is a web-friendly format of International Best Track Archive for Climate Stewardship (IBTrACS), a global best track data archive curated by NOAA dating back to 1842.

Updated: 2021-11-26